sensor_id;sensor_type;location;lat;lon;timestamp;P1;durP1;ratioP1;P2;durP2;ratioP2
18042;SDS011;9146;48.074;11.968;2022-07-31T00:01:50;3.73;;;3.43;;
18042;SDS011;9146;48.074;11.968;2022-07-31T00:04:19;3.83;;;3.53;;
18042;SDS011;9146;48.074;11.968;2022-07-31T00:06:48;5.80;;;4.87;;
18042;SDS011;9146;48.074;11.968;2022-07-31T00:09:15;4.80;;;4.50;;
18042;SDS011;9146;48.074;11.968;2022-07-31T00:11:42;4.70;;;4.40;;
18042;SDS011;9146;48.074;11.968;2022-07-31T00:14:09;4.80;;;4.40;;
18042;SDS011;9146;48.074;11.968;2022-07-31T00:16:37;4.17;;;3.87;;
18042;SDS011;9146;48.074;11.968;2022-07-31T00:19:05;4.30;;;4.00;;
18042;SDS011;9146;48.074;11.968;2022-07-31T00:21:32;4.77;;;4.47;;
18042;SDS011;9146;48.074;11.968;2022-07-31T00:23:59;5.93;;;4.37;;
18042;SDS011;9146;48.074;11.968;2022-07-31T00:26:26;4.07;;;3.77;;
18042;SDS011;9146;48.074;11.968;2022-07-31T00:28:53;4.23;;;3.93;;
18042;SDS011;9146;48.074;11.968;2022-07-31T00:31:20;4.17;;;3.87;;
18042;SDS011;9146;48.074;11.968;2022-07-31T00:33:48;5.83;;;4.40;;
18042;SDS011;9146;48.074;11.968;2022-07-31T00:36:16;4.40;;;4.10;;
18042;SDS011;9146;48.074;11.968;2022-07-31T00:38:43;4.73;;;4.33;;
18042;SDS011;9146;48.074;11.968;2022-07-31T00:41:10;4.23;;;3.93;;
18042;SDS011;9146;48.074;11.968;2022-07-31T00:43:37;3.73;;;3.43;;
18042;SDS011;9146;48.074;11.968;2022-07-31T00:46:04;3.90;;;3.70;;
18042;SDS011;9146;48.074;11.968;2022-07-31T00:48:31;3.53;;;3.23;;
18042;SDS011;9146;48.074;11.968;2022-07-31T00:50:59;3.87;;;3.57;;
18042;SDS011;9146;48.074;11.968;2022-07-31T00:53:27;4.00;;;3.70;;
18042;SDS011;9146;48.074;11.968;2022-07-31T00:55:54;3.63;;;3.43;;
18042;SDS011;9146;48.074;11.968;2022-07-31T00:58:22;3.47;;;3.27;;
18042;SDS011;9146;48.074;11.968;2022-07-31T01:00:49;4.13;;;3.83;;
18042;SDS011;9146;48.074;11.968;2022-07-31T01:03:16;4.80;;;4.40;;
18042;SDS011;9146;48.074;11.968;2022-07-31T01:05:43;4.63;;;4.33;;
18042;SDS011;9146;48.074;11.968;2022-07-31T01:08:10;4.33;;;4.03;;
18042;SDS011;9146;48.074;11.968;2022-07-31T01:10:41;3.60;;;3.40;;
18042;SDS011;9146;48.074;11.968;2022-07-31T01:13:18;4.03;;;3.73;;
18042;SDS011;9146;48.074;11.968;2022-07-31T01:15:49;4.50;;;4.00;;
18042;SDS011;9146;48.074;11.968;2022-07-31T01:18:17;17.97;;;9.70;;
18042;SDS011;9146;48.074;11.968;2022-07-31T01:20:44;14.03;;;9.83;;
18042;SDS011;9146;48.074;11.968;2022-07-31T01:23:21;22.60;;;13.10;;
18042;SDS011;9146;48.074;11.968;2022-07-31T01:26:04;14.90;;;10.53;;
18042;SDS011;9146;48.074;11.968;2022-07-31T01:28:50;13.53;;;8.93;;
18042;SDS011;9146;48.074;11.968;2022-07-31T01:31:26;7.90;;;7.03;;
18042;SDS011;9146;48.074;11.968;2022-07-31T01:34:00;6.60;;;6.00;;
18042;SDS011;9146;48.074;11.968;2022-07-31T01:36:32;7.13;;;5.40;;
18042;SDS011;9146;48.074;11.968;2022-07-31T01:39:02;6.80;;;6.20;;
18042;SDS011;9146;48.074;11.968;2022-07-31T01:41:39;6.10;;;5.50;;
18042;SDS011;9146;48.074;11.968;2022-07-31T01:44:12;6.30;;;5.70;;
18042;SDS011;9146;48.074;11.968;2022-07-31T01:46:41;6.57;;;6.07;;
18042;SDS011;9146;48.074;11.968;2022-07-31T01:49:09;6.77;;;6.17;;
18042;SDS011;9146;48.074;11.968;2022-07-31T01:51:38;9.87;;;5.60;;
18042;SDS011;9146;48.074;11.968;2022-07-31T01:54:06;5.20;;;4.80;;
18042;SDS011;9146;48.074;11.968;2022-07-31T01:56:35;5.53;;;5.13;;
18042;SDS011;9146;48.074;11.968;2022-07-31T01:59:04;6.20;;;5.13;;
18042;SDS011;9146;48.074;11.968;2022-07-31T02:01:33;5.37;;;4.97;;
18042;SDS011;9146;48.074;11.968;2022-07-31T02:04:03;12.57;;;5.90;;
18042;SDS011;9146;48.074;11.968;2022-07-31T02:06:31;6.30;;;5.70;;
18042;SDS011;9146;48.074;11.968;2022-07-31T02:08:59;5.87;;;5.37;;
18042;SDS011;9146;48.074;11.968;2022-07-31T02:11:27;10.50;;;6.00;;
18042;SDS011;9146;48.074;11.968;2022-07-31T02:13:54;5.57;;;5.13;;
18042;SDS011;9146;48.074;11.968;2022-07-31T02:16:22;6.00;;;5.40;;
18042;SDS011;9146;48.074;11.968;2022-07-31T02:18:53;6.30;;;5.70;;
18042;SDS011;9146;48.074;11.968;2022-07-31T02:21:22;6.70;;;5.50;;
18042;SDS011;9146;48.074;11.968;2022-07-31T02:23:50;5.33;;;4.83;;
18042;SDS011;9146;48.074;11.968;2022-07-31T02:26:17;5.13;;;4.73;;
18042;SDS011;9146;48.074;11.968;2022-07-31T02:28:45;4.90;;;4.53;;
18042;SDS011;9146;48.074;11.968;2022-07-31T02:31:14;5.70;;;5.20;;
18042;SDS011;9146;48.074;11.968;2022-07-31T02:33:43;4.90;;;4.60;;
18042;SDS011;9146;48.074;11.968;2022-07-31T02:36:13;6.17;;;5.67;;
18042;SDS011;9146;48.074;11.968;2022-07-31T02:38:42;5.00;;;4.60;;
18042;SDS011;9146;48.074;11.968;2022-07-31T02:41:10;5.57;;;5.10;;
18042;SDS011;9146;48.074;11.968;2022-07-31T02:43:39;5.53;;;5.03;;
18042;SDS011;9146;48.074;11.968;2022-07-31T02:46:08;5.10;;;4.70;;
18042;SDS011;9146;48.074;11.968;2022-07-31T02:48:36;5.70;;;4.80;;
18042;SDS011;9146;48.074;11.968;2022-07-31T02:51:04;4.60;;;4.20;;
18042;SDS011;9146;48.074;11.968;2022-07-31T02:53:33;4.47;;;4.17;;
18042;SDS011;9146;48.074;11.968;2022-07-31T02:56:02;4.20;;;3.80;;
18042;SDS011;9146;48.074;11.968;2022-07-31T02:58:30;4.00;;;3.70;;
18042;SDS011;9146;48.074;11.968;2022-07-31T03:00:57;4.57;;;4.17;;
18042;SDS011;9146;48.074;11.968;2022-07-31T03:03:25;4.43;;;4.10;;
18042;SDS011;9146;48.074;11.968;2022-07-31T03:05:52;4.40;;;4.10;;
18042;SDS011;9146;48.074;11.968;2022-07-31T03:08:19;4.60;;;4.20;;
18042;SDS011;9146;48.074;11.968;2022-07-31T03:10:47;3.40;;;3.20;;
18042;SDS011;9146;48.074;11.968;2022-07-31T03:13:14;3.60;;;3.30;;
18042;SDS011;9146;48.074;11.968;2022-07-31T03:15:42;3.50;;;3.30;;
18042;SDS011;9146;48.074;11.968;2022-07-31T03:18:10;3.97;;;3.70;;
18042;SDS011;9146;48.074;11.968;2022-07-31T03:20:38;4.53;;;3.87;;
18042;SDS011;9146;48.074;11.968;2022-07-31T03:23:06;5.10;;;4.60;;
18042;SDS011;9146;48.074;11.968;2022-07-31T03:25:37;5.40;;;5.00;;
18042;SDS011;9146;48.074;11.968;2022-07-31T03:28:05;5.00;;;4.70;;
18042;SDS011;9146;48.074;11.968;2022-07-31T03:30:33;5.77;;;5.27;;
18042;SDS011;9146;48.074;11.968;2022-07-31T03:33:00;4.33;;;4.03;;
18042;SDS011;9146;48.074;11.968;2022-07-31T03:35:27;4.27;;;3.97;;
18042;SDS011;9146;48.074;11.968;2022-07-31T03:37:55;5.23;;;4.87;;
18042;SDS011;9146;48.074;11.968;2022-07-31T03:40:22;4.77;;;4.40;;
18042;SDS011;9146;48.074;11.968;2022-07-31T03:42:49;5.20;;;4.67;;
18042;SDS011;9146;48.074;11.968;2022-07-31T03:45:19;9.67;;;5.20;;
18042;SDS011;9146;48.074;11.968;2022-07-31T03:47:46;4.77;;;4.43;;
18042;SDS011;9146;48.074;11.968;2022-07-31T03:50:14;4.87;;;4.57;;
18042;SDS011;9146;48.074;11.968;2022-07-31T03:52:42;5.23;;;4.83;;
18042;SDS011;9146;48.074;11.968;2022-07-31T03:55:10;4.80;;;4.50;;
18042;SDS011;9146;48.074;11.968;2022-07-31T03:57:37;4.40;;;4.00;;
18042;SDS011;9146;48.074;11.968;2022-07-31T04:00:06;5.93;;;5.43;;
18042;SDS011;9146;48.074;11.968;2022-07-31T04:02:35;5.60;;;5.10;;
18042;SDS011;9146;48.074;11.968;2022-07-31T04:05:03;6.70;;;6.10;;
18042;SDS011;9146;48.074;11.968;2022-07-31T04:07:30;5.80;;;5.20;;
18042;SDS011;9146;48.074;11.968;2022-07-31T04:09:57;5.47;;;4.93;;
18042;SDS011;9146;48.074;11.968;2022-07-31T04:12:24;6.33;;;5.73;;
18042;SDS011;9146;48.074;11.968;2022-07-31T04:14:51;5.53;;;5.00;;
18042;SDS011;9146;48.074;11.968;2022-07-31T04:17:18;5.23;;;4.80;;
18042;SDS011;9146;48.074;11.968;2022-07-31T04:19:46;6.20;;;5.40;;
18042;SDS011;9146;48.074;11.968;2022-07-31T04:22:13;5.63;;;5.03;;
18042;SDS011;9146;48.074;11.968;2022-07-31T04:24:40;4.70;;;4.30;;
18042;SDS011;9146;48.074;11.968;2022-07-31T04:27:07;5.27;;;4.80;;
18042;SDS011;9146;48.074;11.968;2022-07-31T04:29:34;5.30;;;4.97;;
18042;SDS011;9146;48.074;11.968;2022-07-31T04:32:01;4.93;;;4.47;;
18042;SDS011;9146;48.074;11.968;2022-07-31T04:34:29;5.13;;;4.73;;
18042;SDS011;9146;48.074;11.968;2022-07-31T04:36:57;4.00;;;3.70;;
18042;SDS011;9146;48.074;11.968;2022-07-31T04:39:24;3.83;;;3.53;;
18042;SDS011;9146;48.074;11.968;2022-07-31T04:41:51;4.47;;;4.17;;
18042;SDS011;9146;48.074;11.968;2022-07-31T04:44:18;4.20;;;3.90;;
18042;SDS011;9146;48.074;11.968;2022-07-31T04:46:45;4.10;;;3.70;;
18042;SDS011;9146;48.074;11.968;2022-07-31T04:49:12;4.10;;;3.80;;
18042;SDS011;9146;48.074;11.968;2022-07-31T04:51:39;6.23;;;4.00;;
18042;SDS011;9146;48.074;11.968;2022-07-31T04:54:09;4.33;;;4.03;;
18042;SDS011;9146;48.074;11.968;2022-07-31T04:56:36;4.13;;;3.93;;
18042;SDS011;9146;48.074;11.968;2022-07-31T04:59:10;6.00;;;4.03;;
18042;SDS011;9146;48.074;11.968;2022-07-31T05:01:39;5.37;;;4.00;;
18042;SDS011;9146;48.074;11.968;2022-07-31T05:04:07;4.27;;;3.87;;
18042;SDS011;9146;48.074;11.968;2022-07-31T05:06:34;4.53;;;4.23;;
18042;SDS011;9146;48.074;11.968;2022-07-31T05:09:03;4.23;;;3.93;;
18042;SDS011;9146;48.074;11.968;2022-07-31T05:11:32;3.80;;;3.60;;
18042;SDS011;9146;48.074;11.968;2022-07-31T05:14:00;3.80;;;3.50;;
18042;SDS011;9146;48.074;11.968;2022-07-31T05:16:28;4.17;;;3.70;;
18042;SDS011;9146;48.074;11.968;2022-07-31T05:18:56;5.07;;;4.00;;
18042;SDS011;9146;48.074;11.968;2022-07-31T05:21:23;4.30;;;3.90;;
18042;SDS011;9146;48.074;11.968;2022-07-31T05:23:53;4.70;;;4.30;;
18042;SDS011;9146;48.074;11.968;2022-07-31T05:26:20;4.10;;;3.77;;
18042;SDS011;9146;48.074;11.968;2022-07-31T05:28:48;5.40;;;4.90;;
18042;SDS011;9146;48.074;11.968;2022-07-31T05:31:18;4.40;;;4.10;;
18042;SDS011;9146;48.074;11.968;2022-07-31T05:33:46;6.00;;;3.90;;
18042;SDS011;9146;48.074;11.968;2022-07-31T05:36:14;3.83;;;3.63;;
18042;SDS011;9146;48.074;11.968;2022-07-31T05:38:41;3.77;;;3.50;;
18042;SDS011;9146;48.074;11.968;2022-07-31T05:41:08;3.97;;;3.67;;
18042;SDS011;9146;48.074;11.968;2022-07-31T05:43:36;4.30;;;3.73;;
18042;SDS011;9146;48.074;11.968;2022-07-31T05:46:04;4.20;;;3.90;;
18042;SDS011;9146;48.074;11.968;2022-07-31T05:48:32;4.17;;;3.77;;
18042;SDS011;9146;48.074;11.968;2022-07-31T05:50:59;3.50;;;3.10;;
18042;SDS011;9146;48.074;11.968;2022-07-31T05:53:26;3.70;;;3.37;;
18042;SDS011;9146;48.074;11.968;2022-07-31T05:55:53;4.20;;;3.90;;
18042;SDS011;9146;48.074;11.968;2022-07-31T05:58:20;4.37;;;3.60;;
18042;SDS011;9146;48.074;11.968;2022-07-31T06:00:48;4.00;;;3.70;;
18042;SDS011;9146;48.074;11.968;2022-07-31T06:03:20;4.27;;;3.87;;
18042;SDS011;9146;48.074;11.968;2022-07-31T06:05:48;4.13;;;3.83;;
18042;SDS011;9146;48.074;11.968;2022-07-31T06:08:16;3.47;;;3.20;;
18042;SDS011;9146;48.074;11.968;2022-07-31T06:10:43;3.70;;;3.50;;
18042;SDS011;9146;48.074;11.968;2022-07-31T06:13:10;3.37;;;3.17;;
18042;SDS011;9146;48.074;11.968;2022-07-31T06:15:39;4.80;;;3.17;;
18042;SDS011;9146;48.074;11.968;2022-07-31T06:18:06;5.63;;;3.67;;
18042;SDS011;9146;48.074;11.968;2022-07-31T06:20:34;3.77;;;3.33;;
18042;SDS011;9146;48.074;11.968;2022-07-31T06:23:01;4.57;;;3.50;;
18042;SDS011;9146;48.074;11.968;2022-07-31T06:25:28;3.63;;;3.33;;
18042;SDS011;9146;48.074;11.968;2022-07-31T06:27:55;3.97;;;3.10;;
18042;SDS011;9146;48.074;11.968;2022-07-31T06:30:22;3.60;;;3.30;;
18042;SDS011;9146;48.074;11.968;2022-07-31T06:32:49;3.37;;;3.07;;
18042;SDS011;9146;48.074;11.968;2022-07-31T06:35:16;3.37;;;3.07;;
18042;SDS011;9146;48.074;11.968;2022-07-31T06:37:44;2.97;;;2.77;;
18042;SDS011;9146;48.074;11.968;2022-07-31T06:40:11;2.90;;;2.47;;
18042;SDS011;9146;48.074;11.968;2022-07-31T06:42:39;3.43;;;3.17;;
18042;SDS011;9146;48.074;11.968;2022-07-31T06:45:06;4.77;;;3.67;;
18042;SDS011;9146;48.074;11.968;2022-07-31T06:47:34;3.43;;;3.13;;
18042;SDS011;9146;48.074;11.968;2022-07-31T06:50:01;4.63;;;4.23;;
18042;SDS011;9146;48.074;11.968;2022-07-31T06:52:29;6.30;;;5.13;;
18042;SDS011;9146;48.074;11.968;2022-07-31T06:54:57;3.70;;;3.30;;
18042;SDS011;9146;48.074;11.968;2022-07-31T06:57:25;4.17;;;3.57;;
18042;SDS011;9146;48.074;11.968;2022-07-31T06:59:52;4.13;;;3.83;;
18042;SDS011;9146;48.074;11.968;2022-07-31T07:02:19;3.63;;;3.33;;
18042;SDS011;9146;48.074;11.968;2022-07-31T07:04:46;3.90;;;3.60;;
18042;SDS011;9146;48.074;11.968;2022-07-31T07:07:13;4.20;;;3.17;;
18042;SDS011;9146;48.074;11.968;2022-07-31T07:09:40;5.60;;;3.50;;
18042;SDS011;9146;48.074;11.968;2022-07-31T07:12:08;3.37;;;3.17;;
18042;SDS011;9146;48.074;11.968;2022-07-31T07:14:35;3.23;;;2.93;;
18042;SDS011;9146;48.074;11.968;2022-07-31T07:17:03;2.70;;;2.50;;
18042;SDS011;9146;48.074;11.968;2022-07-31T07:19:30;3.30;;;2.80;;
18042;SDS011;9146;48.074;11.968;2022-07-31T07:21:57;3.20;;;3.00;;
18042;SDS011;9146;48.074;11.968;2022-07-31T07:24:24;5.33;;;3.50;;
18042;SDS011;9146;48.074;11.968;2022-07-31T07:26:52;5.77;;;2.83;;
18042;SDS011;9146;48.074;11.968;2022-07-31T07:29:20;3.80;;;2.87;;
18042;SDS011;9146;48.074;11.968;2022-07-31T07:31:48;3.07;;;2.87;;
18042;SDS011;9146;48.074;11.968;2022-07-31T07:34:15;6.33;;;3.70;;
18042;SDS011;9146;48.074;11.968;2022-07-31T07:36:42;2.70;;;2.50;;
18042;SDS011;9146;48.074;11.968;2022-07-31T07:39:09;2.63;;;2.43;;
18042;SDS011;9146;48.074;11.968;2022-07-31T07:41:36;2.93;;;2.73;;
18042;SDS011;9146;48.074;11.968;2022-07-31T07:44:04;6.37;;;3.37;;
18042;SDS011;9146;48.074;11.968;2022-07-31T07:46:33;2.73;;;2.53;;
18042;SDS011;9146;48.074;11.968;2022-07-31T07:49:00;5.43;;;3.40;;
18042;SDS011;9146;48.074;11.968;2022-07-31T07:51:27;3.00;;;2.80;;
18042;SDS011;9146;48.074;11.968;2022-07-31T07:53:54;4.27;;;3.33;;
18042;SDS011;9146;48.074;11.968;2022-07-31T07:56:21;3.20;;;2.57;;
18042;SDS011;9146;48.074;11.968;2022-07-31T07:58:48;3.67;;;2.67;;
18042;SDS011;9146;48.074;11.968;2022-07-31T08:01:15;2.63;;;2.50;;
18042;SDS011;9146;48.074;11.968;2022-07-31T08:03:45;3.43;;;2.93;;
18042;SDS011;9146;48.074;11.968;2022-07-31T08:06:12;2.53;;;2.40;;
18042;SDS011;9146;48.074;11.968;2022-07-31T08:08:38;3.20;;;2.73;;
18042;SDS011;9146;48.074;11.968;2022-07-31T08:11:05;2.87;;;2.70;;
18042;SDS011;9146;48.074;11.968;2022-07-31T08:13:32;3.57;;;2.70;;
18042;SDS011;9146;48.074;11.968;2022-07-31T08:15:59;4.53;;;2.70;;
18042;SDS011;9146;48.074;11.968;2022-07-31T08:18:26;3.73;;;2.60;;
18042;SDS011;9146;48.074;11.968;2022-07-31T08:20:55;2.77;;;2.57;;
18042;SDS011;9146;48.074;11.968;2022-07-31T08:23:22;2.60;;;2.40;;
18042;SDS011;9146;48.074;11.968;2022-07-31T08:25:49;3.03;;;2.73;;
18042;SDS011;9146;48.074;11.968;2022-07-31T08:28:16;2.20;;;2.10;;
18042;SDS011;9146;48.074;11.968;2022-07-31T08:30:43;2.77;;;2.57;;
18042;SDS011;9146;48.074;11.968;2022-07-31T08:33:10;3.13;;;2.83;;
18042;SDS011;9146;48.074;11.968;2022-07-31T08:35:37;2.40;;;2.30;;
18042;SDS011;9146;48.074;11.968;2022-07-31T08:38:05;8.27;;;3.10;;
18042;SDS011;9146;48.074;11.968;2022-07-31T08:40:32;3.10;;;2.90;;
18042;SDS011;9146;48.074;11.968;2022-07-31T08:43:01;3.00;;;2.80;;
18042;SDS011;9146;48.074;11.968;2022-07-31T08:45:29;5.30;;;2.80;;
18042;SDS011;9146;48.074;11.968;2022-07-31T08:47:57;3.13;;;2.93;;
18042;SDS011;9146;48.074;11.968;2022-07-31T08:50:25;2.77;;;2.57;;
18042;SDS011;9146;48.074;11.968;2022-07-31T08:52:54;2.80;;;2.60;;
18042;SDS011;9146;48.074;11.968;2022-07-31T08:55:25;3.00;;;2.57;;
18042;SDS011;9146;48.074;11.968;2022-07-31T08:57:53;7.13;;;3.20;;
18042;SDS011;9146;48.074;11.968;2022-07-31T09:00:20;5.30;;;2.57;;
18042;SDS011;9146;48.074;11.968;2022-07-31T09:02:47;2.70;;;2.47;;
18042;SDS011;9146;48.074;11.968;2022-07-31T09:05:14;2.60;;;2.40;;
18042;SDS011;9146;48.074;11.968;2022-07-31T09:07:41;3.27;;;3.07;;
18042;SDS011;9146;48.074;11.968;2022-07-31T09:10:18;2.77;;;2.57;;
18042;SDS011;9146;48.074;11.968;2022-07-31T09:12:50;3.13;;;2.37;;
18042;SDS011;9146;48.074;11.968;2022-07-31T09:15:18;5.27;;;3.07;;
18042;SDS011;9146;48.074;11.968;2022-07-31T09:17:46;3.17;;;2.60;;
18042;SDS011;9146;48.074;11.968;2022-07-31T09:20:15;2.57;;;2.37;;
18042;SDS011;9146;48.074;11.968;2022-07-31T09:22:44;3.60;;;2.90;;
18042;SDS011;9146;48.074;11.968;2022-07-31T09:25:12;4.87;;;2.70;;
18042;SDS011;9146;48.074;11.968;2022-07-31T09:27:43;2.87;;;2.67;;
18042;SDS011;9146;48.074;11.968;2022-07-31T09:30:12;2.93;;;2.63;;
18042;SDS011;9146;48.074;11.968;2022-07-31T09:32:40;2.70;;;2.37;;
18042;SDS011;9146;48.074;11.968;2022-07-31T09:35:10;3.47;;;2.50;;
18042;SDS011;9146;48.074;11.968;2022-07-31T09:37:38;2.70;;;2.50;;
18042;SDS011;9146;48.074;11.968;2022-07-31T09:40:05;3.07;;;2.87;;
18042;SDS011;9146;48.074;11.968;2022-07-31T09:42:34;2.60;;;2.40;;
18042;SDS011;9146;48.074;11.968;2022-07-31T09:45:03;2.60;;;2.30;;
18042;SDS011;9146;48.074;11.968;2022-07-31T09:47:43;2.77;;;2.57;;
18042;SDS011;9146;48.074;11.968;2022-07-31T09:50:10;2.30;;;2.03;;
18042;SDS011;9146;48.074;11.968;2022-07-31T09:52:37;2.50;;;2.40;;
18042;SDS011;9146;48.074;11.968;2022-07-31T09:55:05;2.93;;;2.73;;
18042;SDS011;9146;48.074;11.968;2022-07-31T09:57:33;2.57;;;2.23;;
18042;SDS011;9146;48.074;11.968;2022-07-31T10:00:02;2.90;;;2.30;;
18042;SDS011;9146;48.074;11.968;2022-07-31T10:02:31;2.40;;;2.20;;
18042;SDS011;9146;48.074;11.968;2022-07-31T10:05:01;2.50;;;2.30;;
18042;SDS011;9146;48.074;11.968;2022-07-31T10:07:31;2.80;;;2.10;;
18042;SDS011;9146;48.074;11.968;2022-07-31T10:10:00;3.37;;;2.40;;
18042;SDS011;9146;48.074;11.968;2022-07-31T10:12:30;2.50;;;2.10;;
18042;SDS011;9146;48.074;11.968;2022-07-31T10:15:03;3.50;;;2.47;;
18042;SDS011;9146;48.074;11.968;2022-07-31T10:17:35;2.30;;;2.10;;
18042;SDS011;9146;48.074;11.968;2022-07-31T10:20:06;2.70;;;2.50;;
18042;SDS011;9146;48.074;11.968;2022-07-31T10:22:38;2.77;;;2.53;;
18042;SDS011;9146;48.074;11.968;2022-07-31T10:25:09;2.63;;;2.30;;
18042;SDS011;9146;48.074;11.968;2022-07-31T10:27:42;2.27;;;2.10;;
18042;SDS011;9146;48.074;11.968;2022-07-31T10:30:09;2.40;;;2.20;;
18042;SDS011;9146;48.074;11.968;2022-07-31T10:32:37;2.67;;;2.40;;
18042;SDS011;9146;48.074;11.968;2022-07-31T10:35:06;5.93;;;2.33;;
18042;SDS011;9146;48.074;11.968;2022-07-31T10:37:34;2.20;;;2.10;;
18042;SDS011;9146;48.074;11.968;2022-07-31T10:40:09;2.47;;;2.33;;
18042;SDS011;9146;48.074;11.968;2022-07-31T10:42:54;3.10;;;2.80;;
18042;SDS011;9146;48.074;11.968;2022-07-31T10:45:27;2.00;;;1.90;;
18042;SDS011;9146;48.074;11.968;2022-07-31T10:47:56;4.97;;;2.67;;
18042;SDS011;9146;48.074;11.968;2022-07-31T10:50:26;2.50;;;2.30;;
18042;SDS011;9146;48.074;11.968;2022-07-31T10:52:54;3.13;;;2.23;;
18042;SDS011;9146;48.074;11.968;2022-07-31T10:55:31;2.50;;;2.30;;
18042;SDS011;9146;48.074;11.968;2022-07-31T10:58:05;6.83;;;2.30;;
18042;SDS011;9146;48.074;11.968;2022-07-31T11:00:33;3.07;;;2.87;;
18042;SDS011;9146;48.074;11.968;2022-07-31T11:03:10;2.60;;;2.10;;
18042;SDS011;9146;48.074;11.968;2022-07-31T11:05:52;5.23;;;2.40;;
18042;SDS011;9146;48.074;11.968;2022-07-31T11:08:21;7.27;;;2.60;;
18042;SDS011;9146;48.074;11.968;2022-07-31T11:10:48;2.77;;;2.57;;
18042;SDS011;9146;48.074;11.968;2022-07-31T11:13:17;3.30;;;2.43;;
18042;SDS011;9146;48.074;11.968;2022-07-31T11:15:45;2.43;;;2.30;;
18042;SDS011;9146;48.074;11.968;2022-07-31T11:18:13;2.30;;;2.10;;
18042;SDS011;9146;48.074;11.968;2022-07-31T11:20:41;3.73;;;2.17;;
18042;SDS011;9146;48.074;11.968;2022-07-31T11:23:14;2.30;;;2.13;;
18042;SDS011;9146;48.074;11.968;2022-07-31T11:25:42;3.67;;;2.43;;
18042;SDS011;9146;48.074;11.968;2022-07-31T11:28:11;3.37;;;2.13;;
18042;SDS011;9146;48.074;11.968;2022-07-31T11:30:46;2.40;;;2.20;;
18042;SDS011;9146;48.074;11.968;2022-07-31T11:33:14;3.33;;;2.30;;
18042;SDS011;9146;48.074;11.968;2022-07-31T11:35:41;2.60;;;2.37;;
18042;SDS011;9146;48.074;11.968;2022-07-31T11:38:09;2.73;;;2.53;;
18042;SDS011;9146;48.074;11.968;2022-07-31T11:40:37;2.83;;;2.63;;
18042;SDS011;9146;48.074;11.968;2022-07-31T11:43:06;4.30;;;2.27;;
18042;SDS011;9146;48.074;11.968;2022-07-31T11:45:43;4.40;;;2.33;;
18042;SDS011;9146;48.074;11.968;2022-07-31T11:48:13;2.70;;;2.50;;
18042;SDS011;9146;48.074;11.968;2022-07-31T11:50:41;4.23;;;2.47;;
18042;SDS011;9146;48.074;11.968;2022-07-31T11:53:09;2.70;;;1.90;;
18042;SDS011;9146;48.074;11.968;2022-07-31T11:55:44;2.40;;;1.87;;
18042;SDS011;9146;48.074;11.968;2022-07-31T11:58:14;1.90;;;1.80;;
18042;SDS011;9146;48.074;11.968;2022-07-31T12:00:45;2.27;;;2.10;;
18042;SDS011;9146;48.074;11.968;2022-07-31T12:03:14;2.13;;;1.93;;
18042;SDS011;9146;48.074;11.968;2022-07-31T12:05:42;5.50;;;2.03;;
18042;SDS011;9146;48.074;11.968;2022-07-31T12:08:09;2.10;;;2.00;;
18042;SDS011;9146;48.074;11.968;2022-07-31T12:10:37;3.20;;;2.00;;
18042;SDS011;9146;48.074;11.968;2022-07-31T12:13:10;2.83;;;2.40;;
18042;SDS011;9146;48.074;11.968;2022-07-31T12:15:38;2.37;;;1.90;;
18042;SDS011;9146;48.074;11.968;2022-07-31T12:18:05;2.93;;;2.20;;
18042;SDS011;9146;48.074;11.968;2022-07-31T12:20:33;2.17;;;1.93;;
18042;SDS011;9146;48.074;11.968;2022-07-31T12:23:00;2.53;;;2.13;;
18042;SDS011;9146;48.074;11.968;2022-07-31T12:25:37;2.40;;;2.10;;
18042;SDS011;9146;48.074;11.968;2022-07-31T12:28:06;2.57;;;2.03;;
18042;SDS011;9146;48.074;11.968;2022-07-31T12:30:35;2.53;;;1.87;;
18042;SDS011;9146;48.074;11.968;2022-07-31T12:33:03;6.40;;;2.00;;
18042;SDS011;9146;48.074;11.968;2022-07-31T12:35:35;2.10;;;1.90;;
18042;SDS011;9146;48.074;11.968;2022-07-31T12:38:03;2.13;;;2.03;;
18042;SDS011;9146;48.074;11.968;2022-07-31T12:40:31;2.30;;;2.10;;
18042;SDS011;9146;48.074;11.968;2022-07-31T12:42:59;1.97;;;1.87;;
18042;SDS011;9146;48.074;11.968;2022-07-31T12:45:28;2.67;;;2.47;;
18042;SDS011;9146;48.074;11.968;2022-07-31T12:47:57;2.03;;;1.90;;
18042;SDS011;9146;48.074;11.968;2022-07-31T12:50:25;4.00;;;2.90;;
18042;SDS011;9146;48.074;11.968;2022-07-31T12:52:55;2.00;;;1.80;;
18042;SDS011;9146;48.074;11.968;2022-07-31T12:55:24;2.03;;;1.83;;
18042;SDS011;9146;48.074;11.968;2022-07-31T12:57:51;2.70;;;2.23;;
18042;SDS011;9146;48.074;11.968;2022-07-31T13:00:19;1.90;;;1.80;;
18042;SDS011;9146;48.074;11.968;2022-07-31T13:02:47;2.13;;;1.90;;
18042;SDS011;9146;48.074;11.968;2022-07-31T13:05:16;2.10;;;2.00;;
18042;SDS011;9146;48.074;11.968;2022-07-31T13:07:43;1.77;;;1.50;;
18042;SDS011;9146;48.074;11.968;2022-07-31T13:10:10;1.97;;;1.87;;
18042;SDS011;9146;48.074;11.968;2022-07-31T13:12:37;3.60;;;1.70;;
18042;SDS011;9146;48.074;11.968;2022-07-31T13:15:04;2.20;;;2.10;;
18042;SDS011;9146;48.074;11.968;2022-07-31T13:17:31;2.37;;;1.73;;
18042;SDS011;9146;48.074;11.968;2022-07-31T13:19:58;1.83;;;1.73;;
18042;SDS011;9146;48.074;11.968;2022-07-31T13:22:26;4.03;;;1.80;;
18042;SDS011;9146;48.074;11.968;2022-07-31T13:24:53;2.80;;;1.93;;
18042;SDS011;9146;48.074;11.968;2022-07-31T13:27:20;3.20;;;2.20;;
18042;SDS011;9146;48.074;11.968;2022-07-31T13:29:47;1.80;;;1.70;;
18042;SDS011;9146;48.074;11.968;2022-07-31T13:32:14;3.70;;;1.87;;
18042;SDS011;9146;48.074;11.968;2022-07-31T13:34:41;3.13;;;1.97;;
18042;SDS011;9146;48.074;11.968;2022-07-31T13:37:08;2.90;;;1.90;;
18042;SDS011;9146;48.074;11.968;2022-07-31T13:39:36;2.57;;;2.37;;
18042;SDS011;9146;48.074;11.968;2022-07-31T13:42:03;2.07;;;1.90;;
18042;SDS011;9146;48.074;11.968;2022-07-31T13:44:30;2.10;;;1.90;;
18042;SDS011;9146;48.074;11.968;2022-07-31T13:46:58;2.53;;;2.33;;
18042;SDS011;9146;48.074;11.968;2022-07-31T13:49:25;2.80;;;2.40;;
18042;SDS011;9146;48.074;11.968;2022-07-31T13:51:56;2.07;;;1.90;;
18042;SDS011;9146;48.074;11.968;2022-07-31T13:54:23;2.40;;;2.20;;
18042;SDS011;9146;48.074;11.968;2022-07-31T13:56:52;1.73;;;1.63;;
18042;SDS011;9146;48.074;11.968;2022-07-31T13:59:20;1.90;;;1.80;;
18042;SDS011;9146;48.074;11.968;2022-07-31T14:01:47;2.10;;;1.50;;
18042;SDS011;9146;48.074;11.968;2022-07-31T14:04:16;1.67;;;1.57;;
18042;SDS011;9146;48.074;11.968;2022-07-31T14:06:44;2.30;;;2.10;;
18042;SDS011;9146;48.074;11.968;2022-07-31T14:09:11;2.07;;;1.97;;
18042;SDS011;9146;48.074;11.968;2022-07-31T14:11:38;2.63;;;2.07;;
18042;SDS011;9146;48.074;11.968;2022-07-31T14:14:07;2.20;;;2.00;;
18042;SDS011;9146;48.074;11.968;2022-07-31T14:16:34;2.23;;;2.10;;
18042;SDS011;9146;48.074;11.968;2022-07-31T14:19:01;1.90;;;1.80;;
18042;SDS011;9146;48.074;11.968;2022-07-31T14:21:28;2.20;;;2.00;;
18042;SDS011;9146;48.074;11.968;2022-07-31T14:23:55;1.77;;;1.67;;
18042;SDS011;9146;48.074;11.968;2022-07-31T14:26:22;1.60;;;1.50;;
18042;SDS011;9146;48.074;11.968;2022-07-31T14:28:49;5.93;;;2.30;;
18042;SDS011;9146;48.074;11.968;2022-07-31T14:31:18;2.00;;;1.90;;
18042;SDS011;9146;48.074;11.968;2022-07-31T14:33:44;2.20;;;2.00;;
18042;SDS011;9146;48.074;11.968;2022-07-31T14:36:11;2.10;;;2.00;;
18042;SDS011;9146;48.074;11.968;2022-07-31T14:38:38;1.70;;;1.60;;
18042;SDS011;9146;48.074;11.968;2022-07-31T14:41:05;1.77;;;1.67;;
18042;SDS011;9146;48.074;11.968;2022-07-31T14:43:32;2.80;;;2.00;;
18042;SDS011;9146;48.074;11.968;2022-07-31T14:45:59;1.97;;;1.80;;
18042;SDS011;9146;48.074;11.968;2022-07-31T14:48:28;3.33;;;1.83;;
18042;SDS011;9146;48.074;11.968;2022-07-31T14:50:55;3.80;;;1.97;;
18042;SDS011;9146;48.074;11.968;2022-07-31T14:53:21;1.80;;;1.70;;
18042;SDS011;9146;48.074;11.968;2022-07-31T14:55:48;2.37;;;2.17;;